createdAt,value
2022-11-06T00:01:23.780Z,99626.59
2022-11-06T00:03:56.939Z,99640.47
2022-11-06T00:06:46.234Z,99630.25
2022-11-06T00:09:19.971Z,99651.25
2022-11-06T00:11:55.176Z,99640.47
2022-11-06T00:14:27.722Z,99644.56
2022-11-06T00:17:00.177Z,99646.75
2022-11-06T00:19:32.615Z,99656.31
2022-11-06T00:22:04.716Z,99655.06
2022-11-06T00:24:36.933Z,99654.31
2022-11-06T00:27:10.612Z,99654.88
2022-11-06T00:29:43.055Z,99658.44
2022-11-06T00:32:15.275Z,99651.69
2022-11-06T00:34:47.643Z,99649.72
2022-11-06T00:37:19.702Z,99661.06
2022-11-06T00:39:52.042Z,99663.81
2022-11-06T00:42:26.282Z,99668.00
2022-11-06T00:44:58.490Z,99668.97
2022-11-06T00:47:30.863Z,99671.13
2022-11-06T00:50:02.960Z,99671.38
2022-11-06T00:52:35.351Z,99682.94
2022-11-06T00:55:07.873Z,99694.25
2022-11-06T00:57:42.170Z,99695.50
2022-11-06T01:00:16.009Z,99692.22
2022-11-06T01:02:49.375Z,99690.44
2022-11-06T01:05:21.867Z,99701.31
2022-11-06T01:07:53.981Z,99716.34
2022-11-06T01:10:26.193Z,99721.75
2022-11-06T01:13:00.440Z,99720.34
2022-11-06T01:15:38.800Z,99709.38
2022-11-06T01:18:11.503Z,99713.66
2022-11-06T01:20:43.984Z,99727.69
2022-11-06T01:23:19.880Z,99727.69
2022-11-06T01:26:01.045Z,99727.38
2022-11-06T01:28:35.768Z,99720.44
2022-11-06T01:31:08.824Z,99726.47
2022-11-06T01:33:42.210Z,99729.47
2022-11-06T01:36:15.568Z,99737.13
2022-11-06T01:38:49.518Z,99747.50
2022-11-06T01:41:23.589Z,99749.03
2022-11-06T01:44:00.207Z,99750.81
2022-11-06T01:46:33.815Z,99759.88
2022-11-06T01:49:08.602Z,99760.63
2022-11-06T01:51:45.904Z,99769.25
2022-11-06T01:54:19.715Z,99766.66
2022-11-06T01:56:54.596Z,99774.41
2022-11-06T01:59:32.908Z,99768.28
2022-11-06T02:02:05.130Z,99781.28
2022-11-06T02:04:40.677Z,99790.50
2022-11-06T02:07:13.740Z,99793.34
2022-11-06T02:09:46.691Z,99795.28
2022-11-06T02:12:28.737Z,99788.84
2022-11-06T02:15:10.247Z,99787.38
2022-11-06T02:17:56.232Z,99795.25
2022-11-06T02:20:34.608Z,99812.13
2022-11-06T02:23:48.248Z,99800.09
2022-11-06T02:26:37.849Z,99806.38
2022-11-06T02:29:17.077Z,99809.25
2022-11-06T02:31:52.369Z,99820.06
2022-11-06T02:34:28.196Z,99820.25
2022-11-06T02:37:11.221Z,99819.38
2022-11-06T02:39:46.447Z,99820.75
2022-11-06T02:42:21.996Z,99827.38
2022-11-06T02:44:59.402Z,99822.56
2022-11-06T02:47:35.521Z,99822.28
2022-11-06T02:50:14.474Z,99825.94
2022-11-06T02:52:54.076Z,99829.72
2022-11-06T02:55:32.110Z,99837.75
2022-11-06T02:58:10.176Z,99824.41
2022-11-06T03:00:48.456Z,99832.84
2022-11-06T03:03:27.527Z,99838.78
2022-11-06T03:06:04.569Z,99852.38
2022-11-06T03:08:43.210Z,99842.38
2022-11-06T03:11:21.029Z,99845.19
2022-11-06T03:13:57.825Z,99844.03
2022-11-06T03:16:43.413Z,99843.88
2022-11-06T03:19:24.592Z,99856.84
2022-11-06T03:22:05.208Z,99859.25
2022-11-06T03:24:44.602Z,99863.53
2022-11-06T03:27:20.420Z,99861.63
2022-11-06T03:29:58.641Z,99871.19
2022-11-06T03:32:36.627Z,99869.25
2022-11-06T03:35:14.119Z,99864.75
2022-11-06T03:38:00.088Z,99866.38
2022-11-06T03:40:48.929Z,99863.06
2022-11-06T03:43:24.647Z,99874.41
2022-11-06T03:45:59.263Z,99880.59
2022-11-06T03:48:39.641Z,99870.31
2022-11-06T03:51:17.780Z,99872.09
2022-11-06T03:53:52.113Z,99873.91
2022-11-06T03:56:32.128Z,99875.22
2022-11-06T03:59:06.246Z,99869.63
2022-11-06T04:01:41.886Z,99860.34
2022-11-06T04:04:21.293Z,99863.09
2022-11-06T04:07:00.262Z,99859.84
2022-11-06T04:09:52.386Z,99873.25
2022-11-06T04:12:44.991Z,99872.13
2022-11-06T04:15:20.973Z,99864.53
2022-11-06T04:17:54.171Z,99863.81
2022-11-06T04:20:52.883Z,99857.00
2022-11-06T04:23:40.440Z,99853.88
2022-11-06T04:26:39.492Z,99849.38
2022-11-06T04:29:21.887Z,99858.41
2022-11-06T04:32:03.042Z,99858.06
2022-11-06T04:34:43.028Z,99842.53
2022-11-06T04:37:25.489Z,99841.69
2022-11-06T04:40:06.764Z,99839.63
2022-11-06T04:42:46.577Z,99846.41
2022-11-06T04:45:24.047Z,99849.38
2022-11-06T04:47:59.758Z,99847.44
2022-11-06T04:50:37.548Z,99852.06
2022-11-06T04:53:12.837Z,99844.41
2022-11-06T04:55:51.406Z,99848.50
2022-11-06T04:58:23.770Z,99839.41
2022-11-06T05:00:56.308Z,99840.88
2022-11-06T05:03:28.696Z,99822.06
2022-11-06T05:06:01.469Z,99833.28
2022-11-06T05:08:35.862Z,99827.53
2022-11-06T05:11:09.002Z,99817.22
2022-11-06T05:13:41.308Z,99814.47
2022-11-06T05:16:13.924Z,99816.91
2022-11-06T05:18:46.148Z,99814.94
2022-11-06T05:21:35.659Z,99811.41
2022-11-06T05:24:11.210Z,99806.94
2022-11-06T05:26:43.261Z,99794.94
2022-11-06T05:29:16.605Z,99802.75
2022-11-06T05:31:49.683Z,99789.66
2022-11-06T05:34:23.887Z,99792.63
2022-11-06T05:36:56.599Z,99787.25
2022-11-06T05:39:30.679Z,99785.09
2022-11-06T05:42:02.939Z,99790.91
2022-11-06T05:44:35.525Z,99780.41
2022-11-06T05:47:08.182Z,99778.00
2022-11-06T05:49:40.906Z,99769.66
2022-11-06T05:52:13.049Z,99764.28
2022-11-06T05:54:47.501Z,99774.69
2022-11-06T05:57:19.711Z,99761.81
2022-11-06T05:59:53.184Z,99758.72
2022-11-06T06:02:25.782Z,99758.13
2022-11-06T06:04:59.707Z,99752.63
2022-11-06T06:07:32.266Z,99747.13
2022-11-06T06:10:10.132Z,99745.00
2022-11-06T06:12:43.608Z,99742.56
2022-11-06T06:15:17.855Z,99736.88
2022-11-06T06:17:50.160Z,99728.38
2022-11-06T06:20:23.182Z,99714.72
2022-11-06T06:22:59.428Z,99706.16
2022-11-06T06:25:38.453Z,99709.84
2022-11-06T06:28:11.431Z,99703.28
2022-11-06T06:30:43.960Z,99695.84
2022-11-06T06:33:18.910Z,99696.59
2022-11-06T06:35:53.483Z,99697.56
2022-11-06T06:38:27.443Z,99695.53
2022-11-06T06:41:05.365Z,99692.25
2022-11-06T06:43:38.019Z,99683.66
2022-11-06T06:46:13.942Z,99678.22
2022-11-06T06:48:46.503Z,99670.91
2022-11-06T06:51:23.960Z,99660.69
2022-11-06T06:53:56.954Z,99659.47
2022-11-06T06:56:33.139Z,99657.38
2022-11-06T06:59:06.115Z,99656.13
2022-11-06T07:01:39.739Z,99639.38
2022-11-06T07:04:13.708Z,99643.16
2022-11-06T07:06:46.773Z,99636.63
2022-11-06T07:09:20.458Z,99629.28
2022-11-06T07:11:55.011Z,99634.66
2022-11-06T07:14:27.346Z,99618.22
2022-11-06T07:17:02.393Z,99613.38
2022-11-06T07:19:37.248Z,99612.97
2022-11-06T07:22:10.255Z,99607.75
2022-11-06T07:24:42.446Z,99598.22
2022-11-06T07:27:16.941Z,99591.78
2022-11-06T07:29:49.743Z,99575.56
2022-11-06T07:32:22.404Z,99576.09
2022-11-06T07:34:56.081Z,99566.06
2022-11-06T07:37:29.108Z,99562.09
2022-11-06T07:40:02.659Z,99561.19
2022-11-06T07:42:48.095Z,99558.44
2022-11-06T07:45:22.746Z,99551.09
2022-11-06T07:47:58.965Z,99548.94
2022-11-06T07:50:35.777Z,99555.56
2022-11-06T07:53:10.672Z,99548.69
2022-11-06T07:55:50.870Z,99550.03
2022-11-06T07:58:28.035Z,99555.63
2022-11-06T08:01:04.611Z,99544.28
2022-11-06T08:03:47.758Z,99531.31
2022-11-06T08:06:21.553Z,99520.66
2022-11-06T08:08:58.716Z,99507.53
2022-11-06T08:11:36.279Z,99504.84
2022-11-06T08:14:18.140Z,99498.19
2022-11-06T08:17:00.955Z,99502.09
2022-11-06T08:19:34.196Z,99505.97
2022-11-06T08:22:10.748Z,99508.13
2022-11-06T08:24:43.756Z,99512.59
2022-11-06T08:27:19.586Z,99496.91
2022-11-06T08:29:56.024Z,99488.88
2022-11-06T08:32:32.063Z,99491.31
2022-11-06T08:35:08.996Z,99493.84
2022-11-06T08:37:41.805Z,99497.75
2022-11-06T08:40:16.242Z,99495.53
2022-11-06T08:42:51.254Z,99487.25
2022-11-06T08:45:27.422Z,99480.06
2022-11-06T08:48:03.940Z,99472.31
2022-11-06T08:50:36.836Z,99464.63
2022-11-06T08:53:12.804Z,99462.13
2022-11-06T08:55:46.144Z,99453.88
2022-11-06T08:58:18.717Z,99444.50
2022-11-06T09:00:52.752Z,99456.97
2022-11-06T09:03:24.974Z,99457.78
2022-11-06T09:05:57.018Z,99472.38
2022-11-06T09:08:29.590Z,99473.47
2022-11-06T09:11:02.092Z,99474.84
2022-11-06T09:13:34.736Z,99471.81
2022-11-06T09:16:16.210Z,99460.78
2022-11-06T09:18:49.171Z,99451.41
2022-11-06T09:21:22.257Z,99449.47
2022-11-06T09:23:56.940Z,99441.75
2022-11-06T09:26:31.050Z,99435.41
2022-11-06T09:29:03.845Z,99438.97
2022-11-06T09:31:42.057Z,99436.78
2022-11-06T09:34:16.178Z,99438.97
2022-11-06T09:36:48.906Z,99437.56
2022-11-06T09:39:23.121Z,99437.81
2022-11-06T09:42:00.305Z,99436.75
2022-11-06T09:44:53.207Z,99433.72
2022-11-06T09:47:38.055Z,99432.06
2022-11-06T09:50:24.823Z,99434.84
2022-11-06T09:53:05.904Z,99442.00
2022-11-06T09:55:44.359Z,99453.06
2022-11-06T09:58:22.142Z,99456.66
2022-11-06T10:00:57.928Z,99459.09
2022-11-06T10:03:41.294Z,99445.31
2022-11-06T10:06:17.090Z,99450.25
2022-11-06T10:08:53.431Z,99443.09
2022-11-06T10:11:53.416Z,99445.31
2022-11-06T10:14:42.824Z,99440.34
2022-11-06T10:17:30.060Z,99437.56
2022-11-06T10:20:12.921Z,99433.44
2022-11-06T10:22:52.579Z,99432.06
2022-11-06T10:25:29.782Z,99416.63
2022-11-06T10:28:06.071Z,99418.16
2022-11-06T10:30:47.923Z,99420.38
2022-11-06T10:33:35.044Z,99431.47
2022-11-06T10:36:24.352Z,99422.38
2022-11-06T10:38:58.640Z,99418.75
2022-11-06T10:41:39.831Z,99417.63
2022-11-06T10:44:19.103Z,99418.16
2022-11-06T10:46:53.488Z,99418.63
2022-11-06T10:49:40.857Z,99413.91
2022-11-06T10:52:44.041Z,99412.53
2022-11-06T10:55:45.646Z,99411.69
2022-11-06T10:58:23.393Z,99410.84
2022-11-06T11:00:58.072Z,99412.47
2022-11-06T11:03:36.736Z,99411.34
2022-11-06T11:06:13.675Z,99414.41
2022-11-06T11:08:56.796Z,99418.53
2022-11-06T11:11:30.392Z,99419.59
2022-11-06T11:14:28.549Z,99420.69
2022-11-06T11:17:04.647Z,99420.88
2022-11-06T11:19:48.274Z,99422.91
2022-11-06T11:22:26.626Z,99428.88
2022-11-06T11:25:09.073Z,99423.03
2022-11-06T11:27:48.538Z,99422.13
2022-11-06T11:30:27.855Z,99440.25
2022-11-06T11:33:04.249Z,99441.06
2022-11-06T11:35:39.447Z,99441.88
2022-11-06T11:38:22.972Z,99441.88
2022-11-06T11:41:08.460Z,99435.22
2022-11-06T11:43:42.478Z,99439.06
2022-11-06T11:46:25.063Z,99431.25
2022-11-06T11:48:59.260Z,99433.44
2022-11-06T11:51:34.675Z,99430.22
2022-11-06T11:54:10.775Z,99429.97
2022-11-06T11:57:09.266Z,99439.25
2022-11-06T11:59:48.448Z,99437.66
2022-11-06T12:02:28.282Z,99443.41
2022-11-06T12:05:02.464Z,99438.19
2022-11-06T12:07:39.734Z,99434.19
2022-11-06T12:10:28.812Z,99443.53
2022-11-06T12:13:06.625Z,99451.78
2022-11-06T12:15:47.924Z,99450.53
2022-11-06T12:18:23.218Z,99450.97
2022-11-06T12:21:01.283Z,99453.34
2022-11-06T12:23:44.671Z,99452.50
2022-11-06T12:26:29.492Z,99451.63
2022-11-06T12:29:11.454Z,99449.34
2022-11-06T12:31:49.942Z,99457.28
2022-11-06T12:34:28.330Z,99453.75
2022-11-06T12:37:15.043Z,99457.34
2022-11-06T12:39:53.455Z,99457.50
2022-11-06T12:42:30.769Z,99450.56
2022-11-06T12:45:05.412Z,99454.38
2022-11-06T12:47:49.357Z,99461.28
2022-11-06T12:50:30.751Z,99467.06
2022-11-06T12:53:18.608Z,99465.72
2022-11-06T12:56:00.515Z,99456.06
2022-11-06T12:59:03.885Z,99460.41
2022-11-06T13:01:48.866Z,99465.41
2022-11-06T13:04:40.057Z,99461.06
2022-11-06T13:07:50.559Z,99466.31
2022-11-06T13:10:48.383Z,99469.66
2022-11-06T13:13:40.235Z,99483.13
2022-11-06T13:16:20.994Z,99476.31
2022-11-06T13:18:59.927Z,99483.13
2022-11-06T13:21:41.976Z,99472.50
2022-11-06T13:24:22.262Z,99480.22
2022-11-06T13:27:00.701Z,99493.44
2022-11-06T13:29:33.982Z,99491.78
2022-11-06T13:32:16.213Z,99505.69
2022-11-06T13:34:56.871Z,99509.25
2022-11-06T13:37:41.406Z,99503.75
2022-11-06T13:40:30.297Z,99503.91
2022-11-06T13:43:07.149Z,99502.75
2022-11-06T13:45:47.772Z,99495.19
2022-11-06T13:48:34.576Z,99493.34
2022-11-06T13:51:25.113Z,99494.38
2022-11-06T13:54:04.189Z,99494.91
2022-11-06T13:56:55.829Z,99492.63
2022-11-06T13:59:57.871Z,99499.94
2022-11-06T14:03:12.975Z,99503.16
2022-11-06T14:06:05.867Z,99506.25
2022-11-06T14:08:49.379Z,99511.38
2022-11-06T14:11:24.859Z,99514.03
2022-11-06T14:14:03.523Z,99511.06
2022-11-06T14:16:36.914Z,99511.53
2022-11-06T14:19:15.750Z,99517.72
2022-11-06T14:21:51.671Z,99531.09
2022-11-06T14:24:44.530Z,99531.78
2022-11-06T14:27:37.791Z,99540.78
2022-11-06T14:30:57.703Z,99539.00
2022-11-06T14:34:08.778Z,99541.97
2022-11-06T14:36:41.771Z,99547.00
2022-11-06T14:39:18.508Z,99541.53
2022-11-06T14:42:04.588Z,99545.22
2022-11-06T14:44:56.009Z,99538.31
2022-11-06T14:47:36.863Z,99541.22
2022-11-06T14:50:28.144Z,99539.53
2022-11-06T14:53:04.849Z,99532.88
2022-11-06T14:55:43.535Z,99530.41
2022-11-06T14:58:27.060Z,99536.81
2022-11-06T15:01:03.357Z,99544.22
2022-11-06T15:03:41.546Z,99543.34
2022-11-06T15:06:41.529Z,99550.66
2022-11-06T15:09:17.550Z,99550.84
2022-11-06T15:12:00.418Z,99550.50
2022-11-06T15:15:05.779Z,99553.16
2022-11-06T15:17:40.280Z,99562.94
2022-11-06T15:20:35.633Z,99556.63
2022-11-06T15:23:17.473Z,99554.38
2022-11-06T15:26:06.085Z,99555.81
2022-11-06T15:28:48.154Z,99554.88
2022-11-06T15:31:25.513Z,99554.41
2022-11-06T15:34:05.340Z,99562.53
2022-11-06T15:36:44.076Z,99561.00
2022-11-06T15:39:37.322Z,99559.91
2022-11-06T15:42:13.592Z,99561.19
2022-11-06T15:44:48.058Z,99562.66
2022-11-06T15:47:27.123Z,99554.31
2022-11-06T15:50:17.804Z,99562.91
2022-11-06T15:52:51.761Z,99563.00
2022-11-06T15:55:33.498Z,99566.00
2022-11-06T15:58:13.351Z,99563.59
2022-11-06T16:00:49.117Z,99559.66
2022-11-06T16:03:25.851Z,99555.03
2022-11-06T16:06:06.508Z,99570.25
2022-11-06T16:08:41.234Z,99560.28
2022-11-06T16:11:17.606Z,99560.63
2022-11-06T16:13:51.897Z,99557.28
2022-11-06T16:16:44.147Z,99562.78
2022-11-06T16:19:33.275Z,99561.09
2022-11-06T16:22:11.495Z,99558.25
2022-11-06T16:24:49.118Z,99557.06
2022-11-06T16:27:23.569Z,99556.22
2022-11-06T16:30:01.011Z,99549.94
2022-11-06T16:32:44.326Z,99552.88
2022-11-06T16:35:38.320Z,99549.19
2022-11-06T16:38:48.708Z,99548.13
2022-11-06T16:41:38.713Z,99555.41
2022-11-06T16:44:30.869Z,99555.56
2022-11-06T16:47:19.274Z,99552.19
2022-11-06T16:49:54.795Z,99549.47
2022-11-06T16:52:30.771Z,99543.97
2022-11-06T16:55:05.448Z,99549.22
2022-11-06T16:57:46.653Z,99546.16
2022-11-06T17:00:29.246Z,99551.13
2022-11-06T17:03:04.559Z,99543.97
2022-11-06T17:05:43.059Z,99546.84
2022-11-06T17:08:29.373Z,99545.28
2022-11-06T17:11:02.773Z,99548.50
2022-11-06T17:13:36.388Z,99552.09
2022-11-06T17:16:15.504Z,99553.28
2022-11-06T17:18:48.030Z,99552.31
2022-11-06T17:21:23.956Z,99559.56
2022-11-06T17:24:12.215Z,99551.13
2022-11-06T17:26:55.795Z,99550.53
2022-11-06T17:29:27.883Z,99560.19
2022-11-06T17:32:03.165Z,99547.66
2022-11-06T17:34:35.653Z,99552.09
2022-11-06T17:37:07.903Z,99551.38
2022-11-06T17:39:43.360Z,99548.25
2022-11-06T17:42:15.267Z,99539.09
2022-11-06T17:44:49.493Z,99539.59
2022-11-06T17:47:21.744Z,99540.38
2022-11-06T17:49:57.534Z,99531.09
2022-11-06T17:52:30.082Z,99528.72
2022-11-06T17:55:04.574Z,99528.63
2022-11-06T17:57:37.907Z,99529.97
2022-11-06T18:00:12.013Z,99525.31
2022-11-06T18:03:00.543Z,99519.94
2022-11-06T18:05:34.130Z,99512.69
2022-11-06T18:08:06.424Z,99514.59
2022-11-06T18:10:40.970Z,99516.81
2022-11-06T18:13:13.431Z,99508.25
2022-11-06T18:15:45.859Z,99509.34
2022-11-06T18:18:18.490Z,99510.06
2022-11-06T18:20:51.624Z,99504.94
2022-11-06T18:23:23.999Z,99497.91
2022-11-06T18:26:02.145Z,99495.19
2022-11-06T18:28:34.327Z,99502.66
2022-11-06T18:31:07.338Z,99507.19
2022-11-06T18:33:39.665Z,99510.53
2022-11-06T18:36:15.091Z,99503.28
2022-11-06T18:38:47.333Z,99502.94
2022-11-06T18:41:23.311Z,99496.50
2022-11-06T18:44:00.351Z,99490.91
2022-11-06T18:46:33.423Z,99496.59
2022-11-06T18:49:06.063Z,99495.91
2022-11-06T18:51:39.250Z,99488.88
2022-11-06T18:54:12.915Z,99493.78
2022-11-06T18:56:47.251Z,99491.13
2022-11-06T18:59:22.205Z,99484.47
2022-11-06T19:01:54.839Z,99486.84
2022-11-06T19:04:29.245Z,99480.34
2022-11-06T19:07:02.240Z,99476.75
2022-11-06T19:09:34.707Z,99479.25
2022-11-06T19:12:10.623Z,99481.63
2022-11-06T19:14:42.948Z,99480.94
2022-11-06T19:17:15.757Z,99483.50
2022-11-06T19:19:48.062Z,99484.97
2022-11-06T19:22:20.571Z,99492.06
2022-11-06T19:24:53.281Z,99486.59
2022-11-06T19:27:27.209Z,99485.78
2022-11-06T19:29:59.494Z,99479.59
2022-11-06T19:32:31.993Z,99482.81
2022-11-06T19:35:03.868Z,99483.88
2022-11-06T19:37:37.770Z,99476.88
2022-11-06T19:40:12.220Z,99475.66
2022-11-06T19:42:46.654Z,99470.66
2022-11-06T19:45:19.111Z,99471.38
2022-11-06T19:47:51.268Z,99473.16
2022-11-06T19:50:45.804Z,99474.72
2022-11-06T19:53:19.263Z,99466.84
2022-11-06T19:55:51.444Z,99477.31
2022-11-06T19:58:26.153Z,99467.66
2022-11-06T20:00:58.573Z,99463.81
2022-11-06T20:03:31.040Z,99463.38
2022-11-06T20:06:07.647Z,99459.69
2022-11-06T20:08:40.592Z,99470.41
2022-11-06T20:11:15.436Z,99459.22
2022-11-06T20:13:50.050Z,99465.50
2022-11-06T20:16:24.484Z,99459.09
2022-11-06T20:18:57.553Z,99470.25
2022-11-06T20:21:31.172Z,99471.09
2022-11-06T20:24:03.664Z,99464.91
2022-11-06T20:26:36.227Z,99474.91
2022-11-06T20:29:10.577Z,99479.91
2022-11-06T20:31:42.941Z,99479.16
2022-11-06T20:34:14.943Z,99480.56
2022-11-06T20:36:47.008Z,99479.22
2022-11-06T20:39:19.994Z,99474.47
2022-11-06T20:41:52.294Z,99473.66
2022-11-06T20:44:25.951Z,99466.38
2022-11-06T20:46:57.862Z,99454.13
2022-11-06T20:49:31.150Z,99461.47
2022-11-06T20:52:18.320Z,99458.72
2022-11-06T20:54:50.339Z,99464.25
2022-11-06T20:57:22.812Z,99466.25
2022-11-06T20:59:56.868Z,99469.53
2022-11-06T21:02:29.137Z,99469.31
2022-11-06T21:05:01.689Z,99461.38
2022-11-06T21:07:33.912Z,99458.97
2022-11-06T21:10:06.855Z,99453.06
2022-11-06T21:12:38.774Z,99452.09
2022-11-06T21:15:13.744Z,99450.19
2022-11-06T21:17:45.822Z,99450.81
2022-11-06T21:20:22.583Z,99453.78
2022-11-06T21:22:55.520Z,99445.97
2022-11-06T21:25:29.889Z,99440.44
2022-11-06T21:28:02.388Z,99430.66
2022-11-06T21:30:36.153Z,99431.63
2022-11-06T21:33:08.602Z,99441.84
2022-11-06T21:35:41.353Z,99425.91
2022-11-06T21:38:13.281Z,99433.41
2022-11-06T21:40:45.846Z,99425.81
2022-11-06T21:43:18.117Z,99423.09
2022-11-06T21:45:52.047Z,99434.53
2022-11-06T21:48:40.809Z,99438.69
2022-11-06T21:51:21.330Z,99434.81
2022-11-06T21:54:10.852Z,99435.41
2022-11-06T21:56:44.691Z,99431.47
2022-11-06T21:59:19.232Z,99432.84
2022-11-06T22:01:53.568Z,99434.13
2022-11-06T22:04:25.629Z,99431.41
2022-11-06T22:06:57.833Z,99432.84
2022-11-06T22:09:29.866Z,99429.28
2022-11-06T22:12:03.349Z,99430.34
2022-11-06T22:14:36.013Z,99436.44
2022-11-06T22:17:10.629Z,99437.75
2022-11-06T22:19:43.105Z,99442.72
2022-11-06T22:22:15.494Z,99437.00
2022-11-06T22:24:48.245Z,99432.03
2022-11-06T22:27:20.839Z,99429.25
2022-11-06T22:29:54.264Z,99436.13
2022-11-06T22:32:28.530Z,99431.13
2022-11-06T22:35:00.936Z,99437.69
2022-11-06T22:37:33.449Z,99433.94
2022-11-06T22:40:06.106Z,99432.09
2022-11-06T22:42:39.532Z,99436.84
2022-11-06T22:45:13.044Z,99432.81
2022-11-06T22:47:48.136Z,99435.56
2022-11-06T22:50:20.542Z,99442.69
2022-11-06T22:52:53.554Z,99443.38
2022-11-06T22:55:26.002Z,99450.94
2022-11-06T22:57:58.495Z,99452.31
2022-11-06T23:00:31.021Z,99459.75
2022-11-06T23:03:05.167Z,99456.94
2022-11-06T23:05:41.502Z,99457.06
2022-11-06T23:08:14.211Z,99447.84
2022-11-06T23:10:46.998Z,99446.56
2022-11-06T23:13:18.940Z,99453.72
2022-11-06T23:15:51.281Z,99451.34
2022-11-06T23:18:25.822Z,99449.03
2022-11-06T23:20:58.606Z,99437.03
2022-11-06T23:23:30.561Z,99444.41
2022-11-06T23:26:02.663Z,99453.84
2022-11-06T23:28:35.994Z,99449.31
2022-11-06T23:31:11.388Z,99461.41
2022-11-06T23:33:45.893Z,99470.50
2022-11-06T23:36:19.691Z,99466.47
2022-11-06T23:38:57.210Z,99466.47
2022-11-06T23:41:47.869Z,99470.66
2022-11-06T23:44:38.260Z,99472.88
2022-11-06T23:47:10.749Z,99469.66
2022-11-06T23:49:45.444Z,99468.22
2022-11-06T23:52:17.584Z,99474.16
2022-11-06T23:54:49.737Z,99468.88
2022-11-06T23:57:22.762Z,99467.41
2022-11-06T23:59:55.224Z,99476.66
